Portada
METAR-TAF:

METAR-TAF

Aeropuertos :

La Paz, Bolivia

Aeropuerto Internacional El Alto

latitud: 16-31S, longitud: 068-11W, altitud: 4058 m

Observación

El informe se hizo hace 39 minutos, a las 20:00 UTC
Viento 7 kt del sureste, variando entre este-noreste y sur-sureste
Temperatura 16°C
Humedad 12%
Presión 1037 hPa
Visibilidad 10 km o más

METAR: SLLP 242000Z 14007KT 070V150 9999 NSC 16/M13 Q1037

Hora: 16:39 (20:39 UTC)

Pronóstico

El informe se hizo hace 4 horas y 39 minutos, a las 16:00 UTC
Pronóstico válido del 24 a las 18 UTC al 25 a las 18 UTC
Viento 9 kt del oeste-suroeste
Visibilidad 10 km o más
Evolucionando progresivamente
del 25 a las 01 UTC al 25 a las 03 UTC
Viento 5 kt del este-noreste

TAF: SLLP 241600Z 2418/2518 24009KT 9999 NSC TX17/2420Z TNM04/2510Z BECMG 2501/2503 07005KT

Observaciones y pronósticos meteorológicos de más de 4000 aeropuertos (mensajes METAR y TAF).

Los puntos amarillos y rojos representan las estaciones disponibles.

Ponga el ratón en el punto deseado para ver el nombre de la estación.

Haga clic para ver las observaciones y los pronósticos meteorológicos.

Para cambiar el mapa : haga clic en los botones verdes con una cruz de color negro para hacer un zoom, en el botón verde con un guión para alejar o en las flechas verdes para mapas adyacentes.


METAR-TAF: